createdAt,value
2023-05-11T00:00:22.295Z,69.07
2023-05-11T00:02:51.313Z,68.97
2023-05-11T00:05:20.580Z,68.80
2023-05-11T00:07:50.119Z,68.73
2023-05-11T00:10:20.647Z,69.07
2023-05-11T00:12:49.391Z,69.36
2023-05-11T00:15:18.190Z,69.46
2023-05-11T00:17:47.080Z,69.74
2023-05-11T00:20:16.215Z,69.54
2023-05-11T00:22:45.681Z,69.16
2023-05-11T00:25:14.790Z,69.43
2023-05-11T00:27:46.418Z,69.40
2023-05-11T00:30:16.347Z,69.04
2023-05-11T00:32:46.350Z,69.38
2023-05-11T00:35:14.916Z,69.42
2023-05-11T00:37:43.795Z,69.49
2023-05-11T00:40:13.298Z,69.42
2023-05-11T00:42:42.154Z,69.39
2023-05-11T00:45:12.671Z,69.39
2023-05-11T00:47:42.477Z,69.31
2023-05-11T00:50:11.843Z,69.31
2023-05-11T00:52:40.988Z,69.43
2023-05-11T00:55:11.056Z,69.12
2023-05-11T00:57:40.455Z,68.95
2023-05-11T01:00:13.672Z,68.81
2023-05-11T01:02:42.835Z,69.17
2023-05-11T01:05:11.907Z,69.03
2023-05-11T01:07:50.467Z,69.07
2023-05-11T01:10:25.422Z,69.14
2023-05-11T01:13:01.059Z,68.58
2023-05-11T01:15:37.472Z,68.27
2023-05-11T01:18:19.511Z,68.14
2023-05-11T01:20:51.450Z,68.04
2023-05-11T01:23:46.211Z,67.81
2023-05-11T01:26:36.633Z,67.80
2023-05-11T01:29:28.220Z,67.70
2023-05-11T01:32:17.247Z,67.66
2023-05-11T01:34:47.814Z,67.39
2023-05-11T01:37:20.938Z,67.80
2023-05-11T01:39:54.439Z,67.94
2023-05-11T01:42:32.193Z,68.01
2023-05-11T01:45:03.167Z,67.60
2023-05-11T01:47:36.477Z,67.40
2023-05-11T01:50:07.837Z,67.41
2023-05-11T01:52:38.183Z,67.33
2023-05-11T01:55:10.224Z,67.34
2023-05-11T01:57:40.353Z,67.01
2023-05-11T02:00:10.359Z,67.36
2023-05-11T02:02:47.914Z,67.79
2023-05-11T02:05:21.119Z,67.87
2023-05-11T02:07:52.742Z,67.87
2023-05-11T02:10:26.451Z,67.66
2023-05-11T02:12:56.167Z,67.86
2023-05-11T02:15:28.399Z,67.94
2023-05-11T02:18:00.574Z,67.88
2023-05-11T02:20:30.225Z,67.63
2023-05-11T02:23:00.158Z,67.77
2023-05-11T02:25:31.432Z,67.73
2023-05-11T02:28:00.345Z,67.56
2023-05-11T02:30:33.558Z,68.04
2023-05-11T02:33:07.825Z,67.71
2023-05-11T02:35:44.224Z,67.55
2023-05-11T02:38:16.106Z,67.73
2023-05-11T02:40:50.108Z,67.61
2023-05-11T02:43:26.010Z,67.23
2023-05-11T02:46:04.630Z,66.97
2023-05-11T02:48:40.457Z,66.47
2023-05-11T02:51:13.102Z,66.15
2023-05-11T02:53:50.412Z,66.02
2023-05-11T02:56:20.129Z,65.49
2023-05-11T02:58:50.369Z,64.93
2023-05-11T03:01:23.674Z,65.14
2023-05-11T03:03:54.248Z,65.00
2023-05-11T03:06:24.639Z,64.91
2023-05-11T03:08:54.068Z,65.30
2023-05-11T03:11:23.600Z,65.56
2023-05-11T03:13:53.105Z,65.53
2023-05-11T03:16:24.153Z,65.60
2023-05-11T03:18:56.563Z,65.63
2023-05-11T03:21:27.634Z,65.21
2023-05-11T03:23:58.727Z,64.81
2023-05-11T03:26:30.477Z,64.37
2023-05-11T03:29:01.603Z,64.33
2023-05-11T03:31:30.501Z,64.44
2023-05-11T03:34:02.881Z,64.17
2023-05-11T03:36:37.086Z,64.04
2023-05-11T03:39:06.454Z,64.02
2023-05-11T03:41:36.701Z,64.09
2023-05-11T03:44:08.997Z,64.49
2023-05-11T03:46:42.657Z,64.03
2023-05-11T03:49:15.837Z,64.22
2023-05-11T03:51:46.070Z,64.00
2023-05-11T03:54:15.478Z,63.97
2023-05-11T03:56:44.227Z,63.93
2023-05-11T03:59:17.036Z,63.68
2023-05-11T04:01:46.175Z,63.73
2023-05-11T04:04:17.755Z,63.43
2023-05-11T04:06:46.650Z,63.34
2023-05-11T04:09:19.329Z,63.49
2023-05-11T04:11:48.132Z,64.16
2023-05-11T04:14:17.942Z,64.34
2023-05-11T04:16:47.192Z,64.63
2023-05-11T04:19:17.808Z,64.65
2023-05-11T04:21:47.400Z,65.20
2023-05-11T04:24:16.154Z,65.33
2023-05-11T04:26:45.101Z,64.90
2023-05-11T04:29:13.922Z,64.37
2023-05-11T04:31:42.864Z,63.36
2023-05-11T04:34:11.551Z,63.48
2023-05-11T04:36:42.293Z,63.08
2023-05-11T04:39:11.348Z,62.55
2023-05-11T04:41:41.450Z,61.73
2023-05-11T04:44:11.014Z,61.47
2023-05-11T04:46:40.184Z,61.32
2023-05-11T04:49:09.835Z,60.60
2023-05-11T04:51:42.314Z,60.32
2023-05-11T04:54:11.269Z,59.84
2023-05-11T04:56:41.225Z,59.68
2023-05-11T04:59:11.485Z,59.71
2023-05-11T05:01:40.432Z,59.97
2023-05-11T05:04:10.044Z,60.21
2023-05-11T05:06:42.011Z,61.55
2023-05-11T05:09:11.379Z,62.62
2023-05-11T05:11:40.372Z,63.39
2023-05-11T05:14:09.380Z,63.72
2023-05-11T05:16:38.179Z,64.31
2023-05-11T05:19:07.579Z,64.16
2023-05-11T05:21:37.112Z,64.52
2023-05-11T05:24:11.498Z,63.30
2023-05-11T05:26:41.035Z,62.18
2023-05-11T05:29:10.905Z,61.55
2023-05-11T05:31:40.397Z,60.86
2023-05-11T05:34:09.371Z,59.95
2023-05-11T05:36:39.383Z,58.99
2023-05-11T05:39:12.206Z,58.75
2023-05-11T05:41:43.233Z,58.09
2023-05-11T05:44:13.136Z,57.68
2023-05-11T05:46:42.241Z,57.31
2023-05-11T05:49:11.152Z,56.76
2023-05-11T05:51:40.714Z,56.67
2023-05-11T05:54:11.377Z,57.32
2023-05-11T05:56:41.132Z,57.64
2023-05-11T05:59:11.189Z,57.21
2023-05-11T06:01:46.419Z,56.57
2023-05-11T06:04:17.263Z,56.18
2023-05-11T06:06:46.306Z,55.91
2023-05-11T06:09:16.761Z,55.64
2023-05-11T06:11:45.791Z,56.01
2023-05-11T06:14:14.825Z,56.17
2023-05-11T06:16:47.160Z,56.10
2023-05-11T06:19:16.602Z,55.53
2023-05-11T06:21:46.706Z,55.32
2023-05-11T06:24:18.306Z,55.48
2023-05-11T06:26:47.776Z,55.22
2023-05-11T06:29:19.439Z,55.13
2023-05-11T06:31:49.807Z,54.41
2023-05-11T06:34:19.666Z,54.20
2023-05-11T06:36:48.565Z,54.48
2023-05-11T06:39:18.938Z,54.50
2023-05-11T06:41:48.146Z,54.37
2023-05-11T06:44:16.729Z,54.23
2023-05-11T06:46:47.174Z,53.50
2023-05-11T06:49:15.945Z,52.96
2023-05-11T06:51:47.373Z,52.97
2023-05-11T06:54:16.209Z,52.21
2023-05-11T06:56:46.602Z,52.02
2023-05-11T06:59:15.387Z,51.98
2023-05-11T07:01:44.419Z,51.73
2023-05-11T07:04:13.760Z,51.55
2023-05-11T07:06:42.500Z,51.30
2023-05-11T07:09:11.341Z,51.41
2023-05-11T07:11:40.058Z,51.05
2023-05-11T07:14:10.423Z,51.36
2023-05-11T07:16:39.278Z,50.76
2023-05-11T07:19:08.700Z,50.21
2023-05-11T07:21:38.355Z,50.18
2023-05-11T07:24:07.693Z,50.47
2023-05-11T07:26:36.637Z,49.99
2023-05-11T07:29:05.477Z,49.90
2023-05-11T07:31:36.624Z,50.63
2023-05-11T07:34:05.683Z,50.98
2023-05-11T07:36:34.274Z,51.36
2023-05-11T07:39:03.078Z,51.32
2023-05-11T07:41:31.778Z,51.60
2023-05-11T07:44:02.672Z,51.39
2023-05-11T07:46:31.965Z,51.39
2023-05-11T07:49:15.695Z,51.07
2023-05-11T07:51:49.635Z,51.48
2023-05-11T07:54:19.555Z,52.17
2023-05-11T07:56:50.591Z,52.35
2023-05-11T07:59:19.252Z,51.66
2023-05-11T08:01:48.140Z,50.63
2023-05-11T08:04:18.447Z,49.17
2023-05-11T08:06:48.467Z,47.94
2023-05-11T08:09:22.234Z,47.17
2023-05-11T08:11:51.150Z,45.84
2023-05-11T08:14:21.410Z,44.32
2023-05-11T08:16:50.677Z,42.95
2023-05-11T08:19:20.776Z,42.81
2023-05-11T08:21:49.706Z,42.80
2023-05-11T08:24:18.539Z,42.16
2023-05-11T08:26:47.626Z,41.87
2023-05-11T08:29:16.389Z,41.73
2023-05-11T08:31:45.753Z,41.92
2023-05-11T08:34:19.707Z,41.28
2023-05-11T08:36:50.687Z,40.98
2023-05-11T08:39:33.299Z,40.50
2023-05-11T08:42:11.116Z,40.28
2023-05-11T08:44:42.076Z,40.26
2023-05-11T08:49:44.584Z,40.05
2023-05-11T08:52:18.076Z,39.88
2023-05-11T08:54:47.035Z,39.38
2023-05-11T08:57:16.242Z,39.53
2023-05-11T08:59:47.479Z,39.38
2023-05-11T09:02:18.914Z,39.11
2023-05-11T09:04:49.100Z,38.72
2023-05-11T09:07:21.063Z,38.55
2023-05-11T09:09:49.982Z,38.50
2023-05-11T09:12:18.780Z,38.33
2023-05-11T09:14:48.137Z,37.93
2023-05-11T09:17:17.215Z,38.09
2023-05-11T09:20:00.403Z,37.35
2023-05-11T09:22:32.140Z,36.06
2023-05-11T09:25:04.246Z,35.35
2023-05-11T09:27:33.341Z,35.37
2023-05-11T09:30:13.773Z,35.59
2023-05-11T09:32:50.602Z,35.54
2023-05-11T09:35:26.881Z,34.69
2023-05-11T09:38:05.867Z,34.72
2023-05-11T09:40:36.783Z,34.75
2023-05-11T09:43:18.207Z,34.85
2023-05-11T09:45:48.285Z,34.80
2023-05-11T09:48:28.309Z,34.65
2023-05-11T09:51:09.152Z,34.70
2023-05-11T09:53:43.582Z,35.15
2023-05-11T09:56:13.149Z,35.07
2023-05-11T09:58:50.602Z,35.71
2023-05-11T10:01:29.614Z,35.38
2023-05-11T10:04:13.159Z,35.02
2023-05-11T10:06:49.980Z,34.92
2023-05-11T10:09:25.695Z,34.68
2023-05-11T10:11:56.850Z,34.78
2023-05-11T10:14:28.621Z,34.96
2023-05-11T10:16:59.604Z,35.77
2023-05-11T10:19:29.407Z,35.60
2023-05-11T10:21:58.637Z,35.24
2023-05-11T10:24:28.973Z,35.44
2023-05-11T10:26:59.182Z,36.37
2023-05-11T10:29:28.438Z,36.03
2023-05-11T10:31:59.269Z,36.14
2023-05-11T10:34:29.850Z,35.61
2023-05-11T10:37:02.322Z,35.14
2023-05-11T10:39:33.269Z,35.32
2023-05-11T10:42:26.905Z,35.59
2023-05-11T10:45:07.170Z,35.60
2023-05-11T10:48:04.254Z,35.54
2023-05-11T10:50:49.493Z,35.36
2023-05-11T10:53:40.251Z,35.59
2023-05-11T10:56:27.395Z,35.75
2023-05-11T10:59:16.540Z,35.96
2023-05-11T11:01:45.878Z,36.46
2023-05-11T11:04:16.039Z,36.71
2023-05-11T11:06:45.903Z,37.06
2023-05-11T11:09:16.652Z,36.93
2023-05-11T11:11:51.560Z,36.97
2023-05-11T11:14:20.621Z,37.52
2023-05-11T11:17:15.437Z,37.25
2023-05-11T11:19:44.536Z,37.42
2023-05-11T11:22:39.070Z,37.24
2023-05-11T11:25:09.705Z,37.27
2023-05-11T11:28:00.308Z,37.14
2023-05-11T11:30:31.626Z,36.97
2023-05-11T11:33:28.753Z,37.90
2023-05-11T11:35:57.734Z,38.07
2023-05-11T11:38:29.236Z,38.91
2023-05-11T11:40:58.985Z,39.69
2023-05-11T11:43:30.416Z,39.99
2023-05-11T11:46:02.348Z,39.38
2023-05-11T11:48:32.322Z,37.90
2023-05-11T11:51:06.323Z,37.40
2023-05-11T11:54:09.922Z,37.36
2023-05-11T11:56:43.969Z,37.74
2023-05-11T11:59:14.055Z,38.16
2023-05-11T12:01:44.896Z,39.87
2023-05-11T12:04:41.159Z,39.57
2023-05-11T12:07:13.697Z,38.49
2023-05-11T12:09:42.639Z,37.97
2023-05-11T12:12:12.648Z,37.79
2023-05-11T12:14:49.457Z,38.52
2023-05-11T12:17:28.605Z,39.62
2023-05-11T12:20:13.983Z,39.42
2023-05-11T12:22:42.956Z,39.06
2023-05-11T12:25:12.919Z,39.58
2023-05-11T12:27:52.942Z,40.25
2023-05-11T12:30:23.753Z,40.11
2023-05-11T12:32:57.444Z,40.19
2023-05-11T12:35:28.450Z,40.52
2023-05-11T12:37:58.498Z,38.74
2023-05-11T12:40:27.728Z,38.88
2023-05-11T12:42:58.352Z,39.40
2023-05-11T12:45:29.514Z,37.47
2023-05-11T12:48:00.496Z,37.78
2023-05-11T12:50:29.567Z,38.85
2023-05-11T12:53:16.880Z,39.09
2023-05-11T12:55:46.020Z,40.14
2023-05-11T12:58:16.402Z,40.82
2023-05-11T13:00:56.823Z,39.36
2023-05-11T13:03:29.004Z,38.02
2023-05-11T13:06:07.887Z,37.46
2023-05-11T13:08:37.429Z,37.61
2023-05-11T13:11:23.136Z,37.76
2023-05-11T13:13:52.689Z,38.38
2023-05-11T13:16:28.593Z,38.69
2023-05-11T13:19:03.696Z,38.63
2023-05-11T13:21:33.802Z,38.26
2023-05-11T13:24:04.056Z,37.60
2023-05-11T13:26:33.773Z,37.03
2023-05-11T13:29:10.771Z,36.53
2023-05-11T13:31:47.132Z,36.91
2023-05-11T13:34:17.920Z,36.59
2023-05-11T13:36:47.177Z,36.44
2023-05-11T13:39:16.061Z,36.20
2023-05-11T13:41:45.086Z,36.04
2023-05-11T13:44:13.730Z,35.85
2023-05-11T13:46:42.507Z,35.83
2023-05-11T13:49:11.486Z,36.09
2023-05-11T13:51:41.930Z,36.27
2023-05-11T13:54:10.662Z,36.49
2023-05-11T13:56:39.434Z,36.14
2023-05-11T13:59:08.179Z,35.97
2023-05-11T14:01:36.986Z,36.02
2023-05-11T14:04:06.369Z,36.27
2023-05-11T14:06:36.450Z,36.50
2023-05-11T14:09:06.743Z,36.89
2023-05-11T14:11:38.607Z,37.30
2023-05-11T14:14:08.516Z,37.85
2023-05-11T14:16:37.879Z,38.47
2023-05-11T14:19:06.718Z,38.70
2023-05-11T14:21:35.730Z,39.01
2023-05-11T14:24:12.282Z,39.18
2023-05-11T14:26:43.267Z,38.88
2023-05-11T14:29:12.147Z,38.85
2023-05-11T14:31:41.856Z,39.03
2023-05-11T14:34:10.466Z,39.14
2023-05-11T14:36:39.578Z,39.32
2023-05-11T14:39:08.319Z,39.22
2023-05-11T14:41:38.971Z,38.63
2023-05-11T14:44:10.181Z,38.17
2023-05-11T14:46:39.039Z,38.68
2023-05-11T14:49:07.907Z,38.57
2023-05-11T14:51:39.432Z,38.65
2023-05-11T14:54:08.519Z,38.72
2023-05-11T14:56:37.262Z,37.40
2023-05-11T14:59:06.141Z,36.49
2023-05-11T15:01:36.232Z,36.30
2023-05-11T15:04:05.105Z,35.89
2023-05-11T15:06:33.926Z,35.91
2023-05-11T15:09:02.788Z,36.16
2023-05-11T15:11:31.537Z,36.25
2023-05-11T15:14:00.656Z,36.50
2023-05-11T15:16:29.510Z,36.77
2023-05-11T15:19:00.402Z,36.97
2023-05-11T15:21:29.610Z,37.26
2023-05-11T15:23:58.445Z,37.76
2023-05-11T15:26:27.346Z,38.20
2023-05-11T15:28:56.084Z,38.40
2023-05-11T15:31:24.841Z,38.82
2023-05-11T15:33:54.229Z,38.99
2023-05-11T15:36:24.510Z,38.96
2023-05-11T15:38:53.180Z,38.67
2023-05-11T15:41:22.308Z,38.73
2023-05-11T15:43:51.307Z,38.21
2023-05-11T15:46:20.034Z,37.78
2023-05-11T15:48:49.416Z,37.64
2023-05-11T15:51:18.211Z,37.55
2023-05-11T15:53:48.365Z,37.23
2023-05-11T15:56:17.199Z,37.26
2023-05-11T15:58:46.113Z,37.12
2023-05-11T16:01:14.987Z,37.42
2023-05-11T16:03:44.103Z,37.50
2023-05-11T16:06:13.116Z,38.05
2023-05-11T16:08:41.862Z,38.05
2023-05-11T16:11:12.196Z,37.98
2023-05-11T16:13:41.196Z,37.94
2023-05-11T16:16:10.125Z,37.68
2023-05-11T16:18:40.029Z,37.85
2023-05-11T16:21:08.927Z,38.26
2023-05-11T16:23:37.672Z,38.61
2023-05-11T16:26:07.246Z,38.56
2023-05-11T16:28:37.365Z,38.93
2023-05-11T16:31:06.508Z,38.74
2023-05-11T16:33:35.282Z,38.52
2023-05-11T16:36:04.208Z,38.69
2023-05-11T16:38:32.949Z,38.27
2023-05-11T16:41:02.074Z,38.20
2023-05-11T16:43:32.596Z,38.25
2023-05-11T16:46:03.914Z,38.19
2023-05-11T16:48:32.743Z,38.07
2023-05-11T16:51:01.505Z,38.09
2023-05-11T16:53:30.378Z,38.00
2023-05-11T16:55:59.453Z,38.00
2023-05-11T16:58:28.298Z,38.28
2023-05-11T17:00:56.919Z,38.18
2023-05-11T17:03:27.300Z,38.39
2023-05-11T17:05:57.673Z,38.37
2023-05-11T17:08:26.718Z,38.65
2023-05-11T17:10:55.849Z,38.81
2023-05-11T17:13:24.783Z,38.70
2023-05-11T17:15:56.367Z,38.77
2023-05-11T17:18:27.635Z,39.02
2023-05-11T17:20:57.656Z,39.10
2023-05-11T17:23:26.938Z,39.14
2023-05-11T17:25:55.719Z,39.09
2023-05-11T17:28:25.323Z,38.95
2023-05-11T17:30:54.340Z,38.78
2023-05-11T17:33:23.806Z,38.64
2023-05-11T17:35:54.560Z,38.75
2023-05-11T17:38:23.395Z,38.79
2023-05-11T17:40:52.068Z,38.81
2023-05-11T17:43:20.806Z,38.99
2023-05-11T17:45:50.747Z,38.86
2023-05-11T17:48:20.214Z,38.73
2023-05-11T17:50:50.397Z,39.04
2023-05-11T17:53:20.777Z,39.21
2023-05-11T17:55:50.447Z,39.86
2023-05-11T17:58:18.800Z,40.06
2023-05-11T18:00:49.078Z,40.26
2023-05-11T18:03:18.695Z,40.63
2023-05-11T18:05:48.964Z,40.88
2023-05-11T18:08:18.354Z,41.71
2023-05-11T18:10:48.854Z,42.10
2023-05-11T18:13:17.873Z,42.05
2023-05-11T18:15:47.539Z,41.76
2023-05-11T18:18:16.343Z,41.92
2023-05-11T18:20:46.751Z,42.23
2023-05-11T18:23:15.647Z,42.40
2023-05-11T18:25:44.470Z,41.82
2023-05-11T18:28:14.697Z,42.04
2023-05-11T18:30:43.653Z,42.42
2023-05-11T18:33:12.652Z,42.84
2023-05-11T18:35:42.608Z,43.53
2023-05-11T18:38:12.246Z,43.91
2023-05-11T18:40:41.102Z,43.08
2023-05-11T18:43:09.968Z,42.68
2023-05-11T18:45:41.369Z,42.97
2023-05-11T18:48:10.380Z,43.24
2023-05-11T18:50:40.163Z,43.67
2023-05-11T18:53:09.206Z,44.07
2023-05-11T18:55:52.049Z,44.05
2023-05-11T18:58:22.461Z,43.70
2023-05-11T19:00:53.073Z,43.24
2023-05-11T19:03:22.735Z,43.12
2023-05-11T19:05:52.049Z,43.20
2023-05-11T19:08:20.814Z,43.69
2023-05-11T19:10:49.672Z,42.76
2023-05-11T19:13:18.473Z,42.40
2023-05-11T19:15:47.285Z,42.64
2023-05-11T19:18:18.059Z,41.88
2023-05-11T19:20:47.281Z,42.73
2023-05-11T19:23:16.089Z,42.45
2023-05-11T19:25:45.795Z,42.75
2023-05-11T19:28:14.289Z,43.27
2023-05-11T19:30:43.103Z,44.16
2023-05-11T19:33:12.220Z,44.74
2023-05-11T19:35:42.585Z,45.83
2023-05-11T19:38:11.587Z,46.48
2023-05-11T19:43:13.818Z,47.54
2023-05-11T19:45:44.529Z,48.12
2023-05-11T19:48:14.018Z,48.27
2023-05-11T19:50:44.429Z,49.13
2023-05-11T19:53:13.314Z,49.55
2023-05-11T19:55:42.253Z,49.82
2023-05-11T19:58:12.253Z,49.68
2023-05-11T20:00:42.757Z,50.26
2023-05-11T20:03:11.825Z,50.36
2023-05-11T20:05:40.628Z,50.61
2023-05-11T20:08:11.491Z,50.76
2023-05-11T20:10:40.372Z,50.95
2023-05-11T20:13:09.146Z,51.06
2023-05-11T20:15:39.817Z,51.60
2023-05-11T20:18:09.694Z,52.01
2023-05-11T20:20:38.568Z,51.67
2023-05-11T20:23:07.350Z,52.04
2023-05-11T20:25:40.309Z,52.33
2023-05-11T20:28:09.462Z,52.50
2023-05-11T20:30:38.406Z,52.91
2023-05-11T20:35:39.754Z,53.49
2023-05-11T20:38:08.463Z,53.63
2023-05-11T20:40:38.764Z,53.79
2023-05-11T20:43:09.025Z,54.26
2023-05-11T20:45:37.744Z,54.76
2023-05-11T20:48:06.817Z,54.18
2023-05-11T20:50:35.734Z,54.33
2023-05-11T20:53:04.447Z,54.87
2023-05-11T20:55:33.327Z,55.05
2023-05-11T20:58:05.440Z,55.72
2023-05-11T21:00:34.319Z,56.05
2023-05-11T21:03:03.211Z,56.53
2023-05-11T21:05:32.287Z,56.40
2023-05-11T21:08:01.576Z,56.70
2023-05-11T21:10:31.080Z,57.33
2023-05-11T21:13:01.502Z,57.61
2023-05-11T21:15:31.798Z,58.92
2023-05-11T21:18:02.458Z,58.73
2023-05-11T21:20:31.347Z,58.04
2023-05-11T21:23:00.636Z,58.14
2023-05-11T21:25:29.522Z,58.09
2023-05-11T21:27:58.305Z,57.78
2023-05-11T21:30:27.058Z,58.15
2023-05-11T21:32:57.631Z,58.94
2023-05-11T21:35:26.659Z,59.58
2023-05-11T21:37:55.340Z,60.19
2023-05-11T21:40:24.217Z,60.99
2023-05-11T21:42:53.078Z,61.08
2023-05-11T21:45:22.234Z,61.67
2023-05-11T21:47:51.062Z,62.04
2023-05-11T21:50:21.767Z,62.21
2023-05-11T21:52:50.968Z,62.93
2023-05-11T21:55:19.758Z,63.12
2023-05-11T21:57:48.745Z,63.74
2023-05-11T22:00:19.621Z,63.83
2023-05-11T22:02:48.798Z,64.04
2023-05-11T22:05:18.044Z,64.27
2023-05-11T22:07:48.172Z,64.53
2023-05-11T22:10:17.777Z,64.81
2023-05-11T22:12:46.772Z,65.02
2023-05-11T22:15:15.602Z,64.93
2023-05-11T22:17:44.443Z,64.86
2023-05-11T22:20:14.833Z,64.91
2023-05-11T22:22:43.673Z,65.04
2023-05-11T22:25:13.992Z,65.63
2023-05-11T22:27:42.810Z,66.34
2023-05-11T22:30:12.606Z,66.60
2023-05-11T22:32:41.538Z,66.70
2023-05-11T22:35:11.064Z,67.29
2023-05-11T22:37:40.216Z,67.76
2023-05-11T22:40:10.233Z,68.00
2023-05-11T22:42:40.564Z,68.49
2023-05-11T22:45:10.564Z,68.56
2023-05-11T22:47:39.469Z,68.72
2023-05-11T22:50:12.129Z,68.96
2023-05-11T22:52:40.950Z,69.12
2023-05-11T22:55:10.844Z,69.02
2023-05-11T22:57:41.855Z,69.39
2023-05-11T23:00:11.888Z,69.55
2023-05-11T23:02:41.695Z,69.77
2023-05-11T23:05:10.909Z,69.90
2023-05-11T23:07:39.629Z,69.86
2023-05-11T23:10:09.022Z,69.45
2023-05-11T23:12:37.749Z,69.32
2023-05-11T23:15:10.240Z,69.22
2023-05-11T23:17:39.098Z,69.54
2023-05-11T23:20:08.960Z,69.80
2023-05-11T23:22:37.918Z,70.03
2023-05-11T23:25:07.197Z,70.15
2023-05-11T23:27:36.106Z,70.31
2023-05-11T23:30:05.241Z,70.46
2023-05-11T23:32:35.869Z,70.74
2023-05-11T23:35:04.664Z,71.47
2023-05-11T23:37:33.349Z,71.14
2023-05-11T23:40:02.210Z,71.31
2023-05-11T23:42:30.948Z,71.88
2023-05-11T23:45:04.809Z,71.98
2023-05-11T23:47:36.573Z,72.25
2023-05-11T23:50:05.945Z,72.55
2023-05-11T23:52:34.680Z,72.52
2023-05-11T23:55:05.242Z,72.67
2023-05-11T23:57:34.179Z,72.44
